sensor_id;sensor_type;location;lat;lon;timestamp;pressure;altitude;pressure_sealevel;temperature;humidity
35758;BME280;21879;50.110;18.900;2024-03-23T00:58:10;98028.90;;;22.84;52.05
35758;BME280;21879;50.110;18.900;2024-03-23T01:08:16;98020.10;;;22.83;51.91
35758;BME280;21879;50.110;18.900;2024-03-23T01:18:21;98006.95;;;22.82;51.83
35758;BME280;21879;50.110;18.900;2024-03-23T01:28:26;98000.77;;;22.81;51.70
35758;BME280;21879;50.110;18.900;2024-03-23T01:38:32;97987.71;;;22.80;51.57
35758;BME280;21879;50.110;18.900;2024-03-23T01:48:37;97978.70;;;22.80;51.58
35758;BME280;21879;50.110;18.900;2024-03-23T01:58:42;97973.30;;;22.81;51.52
35758;BME280;21879;50.110;18.900;2024-03-23T02:08:47;97964.55;;;22.82;51.73
35758;BME280;21879;50.110;18.900;2024-03-23T02:18:53;97952.28;;;22.88;52.69
35758;BME280;21879;50.110;18.900;2024-03-23T02:28:58;97946.52;;;22.94;53.77
35758;BME280;21879;50.110;18.900;2024-03-23T02:39:03;97930.95;;;22.96;53.69
35758;BME280;21879;50.110;18.900;2024-03-23T02:49:09;97925.02;;;22.95;53.47
35758;BME280;21879;50.110;18.900;2024-03-23T02:59:14;97903.11;;;22.94;53.16
35758;BME280;21879;50.110;18.900;2024-03-23T03:09:19;97895.20;;;22.93;52.96
35758;BME280;21879;50.110;18.900;2024-03-23T03:19:25;97888.40;;;22.91;52.72
35758;BME280;21879;50.110;18.900;2024-03-23T03:29:31;97874.20;;;22.89;52.50
35758;BME280;21879;50.110;18.900;2024-03-23T03:39:39;97876.14;;;22.87;52.25
35758;BME280;21879;50.110;18.900;2024-03-23T03:49:44;97864.55;;;22.85;52.18
35758;BME280;21879;50.110;18.900;2024-03-23T03:59:49;97852.94;;;22.84;52.07
35758;BME280;21879;50.110;18.900;2024-03-23T04:09:55;97842.06;;;22.82;51.90
35758;BME280;21879;50.110;18.900;2024-03-23T04:20:00;97835.38;;;22.82;51.89
35758;BME280;21879;50.110;18.900;2024-03-23T04:30:07;97825.99;;;22.81;51.64
35758;BME280;21879;50.110;18.900;2024-03-23T04:40:15;97806.59;;;22.80;51.50
35758;BME280;21879;50.110;18.900;2024-03-23T04:50:20;97782.18;;;22.80;51.40
35758;BME280;21879;50.110;18.900;2024-03-23T05:00:25;97778.88;;;22.79;51.29
35758;BME280;21879;50.110;18.900;2024-03-23T05:10:30;97778.95;;;22.78;51.24
35758;BME280;21879;50.110;18.900;2024-03-23T05:20:36;97770.45;;;22.78;51.12
35758;BME280;21879;50.110;18.900;2024-03-23T05:30:42;97769.59;;;22.77;50.96
35758;BME280;21879;50.110;18.900;2024-03-23T05:40:53;97770.80;;;22.78;50.99
35758;BME280;21879;50.110;18.900;2024-03-23T05:50:59;97777.66;;;22.79;50.90
35758;BME280;21879;50.110;18.900;2024-03-23T06:01:04;97762.25;;;22.78;50.74
35758;BME280;21879;50.110;18.900;2024-03-23T06:11:10;97741.17;;;22.78;50.63
35758;BME280;21879;50.110;18.900;2024-03-23T06:21:15;97726.67;;;22.78;50.58
35758;BME280;21879;50.110;18.900;2024-03-23T06:31:21;97727.59;;;22.77;50.53
35758;BME280;21879;50.110;18.900;2024-03-23T06:41:26;97719.55;;;22.76;50.47
35758;BME280;21879;50.110;18.900;2024-03-23T06:51:31;97705.62;;;22.72;49.59
35758;BME280;21879;50.110;18.900;2024-03-23T07:01:37;97707.81;;;22.69;49.21
35758;BME280;21879;50.110;18.900;2024-03-23T07:11:43;97702.21;;;22.73;49.36
35758;BME280;21879;50.110;18.900;2024-03-23T07:21:48;97698.48;;;22.78;49.48
35758;BME280;21879;50.110;18.900;2024-03-23T07:31:53;97698.45;;;22.83;50.10
35758;BME280;21879;50.110;18.900;2024-03-23T07:41:58;97692.77;;;22.92;50.58
35758;BME280;21879;50.110;18.900;2024-03-23T07:52:04;97686.57;;;22.92;50.48
35758;BME280;21879;50.110;18.900;2024-03-23T08:02:10;97672.38;;;22.93;50.60
35758;BME280;21879;50.110;18.900;2024-03-23T08:12:15;97646.44;;;22.94;50.54
35758;BME280;21879;50.110;18.900;2024-03-23T08:22:20;97626.61;;;22.93;49.68
35758;BME280;21879;50.110;18.900;2024-03-23T08:32:26;97604.74;;;22.92;48.66
35758;BME280;21879;50.110;18.900;2024-03-23T08:42:31;97588.25;;;22.90;47.72
35758;BME280;21879;50.110;18.900;2024-03-23T08:52:36;97565.96;;;22.87;46.70
35758;BME280;21879;50.110;18.900;2024-03-23T09:02:42;97543.94;;;22.81;45.43
35758;BME280;21879;50.110;18.900;2024-03-23T09:12:47;97517.79;;;22.77;45.02
35758;BME280;21879;50.110;18.900;2024-03-23T09:22:52;97500.58;;;22.80;45.38
35758;BME280;21879;50.110;18.900;2024-03-23T09:32:57;97479.39;;;22.83;45.26
35758;BME280;21879;50.110;18.900;2024-03-23T09:43:03;97460.38;;;22.86;44.97
35758;BME280;21879;50.110;18.900;2024-03-23T09:53:11;97424.36;;;22.89;44.47
35758;BME280;21879;50.110;18.900;2024-03-23T10:03:17;97410.42;;;22.92;44.01
35758;BME280;21879;50.110;18.900;2024-03-23T10:13:25;97389.30;;;22.97;43.18
35758;BME280;21879;50.110;18.900;2024-03-23T10:23:31;97373.45;;;23.03;42.47
35758;BME280;21879;50.110;18.900;2024-03-23T10:33:36;97347.27;;;23.09;41.84
35758;BME280;21879;50.110;18.900;2024-03-23T10:43:41;97335.86;;;23.14;41.40
35758;BME280;21879;50.110;18.900;2024-03-23T10:53:47;97316.62;;;23.21;41.60
35758;BME280;21879;50.110;18.900;2024-03-23T11:03:53;97299.46;;;23.29;40.92
35758;BME280;21879;50.110;18.900;2024-03-23T11:13:58;97274.52;;;23.37;40.95
35758;BME280;21879;50.110;18.900;2024-03-23T11:24:14;97230.16;;;23.41;40.92
35758;BME280;21879;50.110;18.900;2024-03-23T11:34:19;97205.06;;;23.45;40.81
35758;BME280;21879;50.110;18.900;2024-03-23T11:44:25;97167.67;;;23.51;40.93
35758;BME280;21879;50.110;18.900;2024-03-23T11:54:31;97146.11;;;23.57;41.22
35758;BME280;21879;50.110;18.900;2024-03-23T12:04:36;97116.58;;;23.62;41.07
35758;BME280;21879;50.110;18.900;2024-03-23T12:14:41;97087.17;;;23.68;41.68
35758;BME280;21879;50.110;18.900;2024-03-23T12:24:50;97071.67;;;23.77;41.78
35758;BME280;21879;50.110;18.900;2024-03-23T12:34:55;97037.48;;;23.84;41.45
35758;BME280;21879;50.110;18.900;2024-03-23T12:45:00;97011.70;;;23.91;41.15
35758;BME280;21879;50.110;18.900;2024-03-23T12:55:07;96983.37;;;23.96;41.31
35758;BME280;21879;50.110;18.900;2024-03-23T13:05:12;96969.86;;;24.04;42.49
35758;BME280;21879;50.110;18.900;2024-03-23T13:15:17;96969.85;;;24.10;43.76
35758;BME280;21879;50.110;18.900;2024-03-23T13:25:24;96965.95;;;24.09;44.68
35758;BME280;21879;50.110;18.900;2024-03-23T13:35:29;96964.11;;;24.06;45.36
35758;BME280;21879;50.110;18.900;2024-03-23T13:45:34;96996.27;;;24.02;46.02
35758;BME280;21879;50.110;18.900;2024-03-23T14:06:51;97283.42;;;24.08;47.10
35758;BME280;21879;50.110;18.900;2024-03-23T14:16:57;97300.21;;;24.06;47.76
35758;BME280;21879;50.110;18.900;2024-03-23T14:27:02;97272.80;;;24.03;48.11
35758;BME280;21879;50.110;18.900;2024-03-23T14:37:09;97241.24;;;23.98;48.63
35758;BME280;21879;50.110;18.900;2024-03-23T14:58:15;97232.92;;;23.86;49.56
35758;BME280;21879;50.110;18.900;2024-03-23T15:19:18;97297.46;;;23.81;50.25
35758;BME280;21879;50.110;18.900;2024-03-23T15:39:49;97276.75;;;23.80;51.45
35758;BME280;21879;50.110;18.900;2024-03-23T15:49:56;97286.35;;;23.80;51.68
35758;BME280;21879;50.110;18.900;2024-03-23T16:00:02;97299.13;;;23.80;51.83
35758;BME280;21879;50.110;18.900;2024-03-23T16:10:07;97324.66;;;23.78;51.99
35758;BME280;21879;50.110;18.900;2024-03-23T16:20:13;97340.34;;;23.77;52.16
35758;BME280;21879;50.110;18.900;2024-03-23T16:30:18;97357.52;;;23.76;52.18
35758;BME280;21879;50.110;18.900;2024-03-23T16:50:47;97480.63;;;23.72;52.25
35758;BME280;21879;50.110;18.900;2024-03-23T17:00:52;97531.45;;;23.73;52.52
35758;BME280;21879;50.110;18.900;2024-03-23T17:11:00;97547.57;;;23.72;52.37
35758;BME280;21879;50.110;18.900;2024-03-23T17:21:05;97577.63;;;23.71;52.65
35758;BME280;21879;50.110;18.900;2024-03-23T17:31:17;97609.05;;;23.75;52.71
35758;BME280;21879;50.110;18.900;2024-03-23T17:41:22;97612.15;;;23.81;52.53
35758;BME280;21879;50.110;18.900;2024-03-23T17:51:29;97636.41;;;23.88;52.41
35758;BME280;21879;50.110;18.900;2024-03-23T18:01:35;97657.89;;;23.92;52.31
35758;BME280;21879;50.110;18.900;2024-03-23T18:11:40;97676.04;;;23.94;52.25
35758;BME280;21879;50.110;18.900;2024-03-23T18:21:46;97696.75;;;23.97;52.05
35758;BME280;21879;50.110;18.900;2024-03-23T18:31:51;97704.80;;;23.99;51.94
35758;BME280;21879;50.110;18.900;2024-03-23T18:41:57;97714.73;;;23.99;51.91
35758;BME280;21879;50.110;18.900;2024-03-23T18:52:03;97716.84;;;23.99;52.23
35758;BME280;21879;50.110;18.900;2024-03-23T19:02:08;97720.60;;;23.99;52.21
35758;BME280;21879;50.110;18.900;2024-03-23T19:12:15;97713.89;;;23.98;52.27
35758;BME280;21879;50.110;18.900;2024-03-23T19:22:21;97698.59;;;23.98;52.40
35758;BME280;21879;50.110;18.900;2024-03-23T19:32:27;97692.27;;;23.98;52.42
35758;BME280;21879;50.110;18.900;2024-03-23T19:42:33;97717.23;;;23.98;52.42
35758;BME280;21879;50.110;18.900;2024-03-23T19:52:38;97740.95;;;24.02;52.56
35758;BME280;21879;50.110;18.900;2024-03-23T20:02:45;97744.30;;;24.04;52.79
35758;BME280;21879;50.110;18.900;2024-03-23T20:12:50;97732.31;;;24.05;53.02
35758;BME280;21879;50.110;18.900;2024-03-23T20:22:56;97748.45;;;24.05;52.96
35758;BME280;21879;50.110;18.900;2024-03-23T20:33:01;97737.27;;;24.08;53.13
35758;BME280;21879;50.110;18.900;2024-03-23T20:43:09;97743.13;;;24.10;53.05
35758;BME280;21879;50.110;18.900;2024-03-23T20:53:18;97740.80;;;24.12;53.29
35758;BME280;21879;50.110;18.900;2024-03-23T21:03:24;97746.88;;;24.14;53.24
35758;BME280;21879;50.110;18.900;2024-03-23T21:13:29;97751.19;;;24.16;53.28
35758;BME280;21879;50.110;18.900;2024-03-23T21:23:35;97768.42;;;24.15;53.36
35758;BME280;21879;50.110;18.900;2024-03-23T21:33:41;97738.46;;;24.17;53.30
35758;BME280;21879;50.110;18.900;2024-03-23T21:43:46;97707.44;;;24.16;52.95
35758;BME280;21879;50.110;18.900;2024-03-23T21:53:52;97705.30;;;24.17;52.72
35758;BME280;21879;50.110;18.900;2024-03-23T22:03:59;97716.16;;;24.16;52.62
35758;BME280;21879;50.110;18.900;2024-03-23T22:14:05;97707.55;;;24.15;52.29
35758;BME280;21879;50.110;18.900;2024-03-23T22:24:12;97692.30;;;24.15;52.17
35758;BME280;21879;50.110;18.900;2024-03-23T22:34:17;97676.14;;;24.14;52.26
35758;BME280;21879;50.110;18.900;2024-03-23T22:44:22;97706.13;;;24.15;52.10
35758;BME280;21879;50.110;18.900;2024-03-23T22:54:28;97720.90;;;24.14;52.04
35758;BME280;21879;50.110;18.900;2024-03-23T23:04:35;97722.64;;;24.15;52.01
35758;BME280;21879;50.110;18.900;2024-03-23T23:14:40;97703.34;;;24.14;51.79
35758;BME280;21879;50.110;18.900;2024-03-23T23:24:46;97695.02;;;24.14;51.51
35758;BME280;21879;50.110;18.900;2024-03-23T23:34:52;97707.45;;;24.14;51.64
35758;BME280;21879;50.110;18.900;2024-03-23T23:44:57;97709.55;;;24.14;51.43
35758;BME280;21879;50.110;18.900;2024-03-23T23:55:02;97697.84;;;24.14;51.43
